颱風巨爵
论坛版主-副热带高压
论坛版主-副热带高压
  • 注册日期2013-08-03
  • 最后登录2018-09-20
  • 粉丝61
  • 关注1
  • 发帖数430
  • 来自
阅读:7091回复:21

[2018]1822号超强台风“山竹”(26W.Mangkhut)云图实况专帖

楼主#
更多 发布于:2018-09-11 15:45
山竹正在菲律賓以東強勢爆發,數值機構均上望極高強度,並將以雷霆萬鈞之勢闖入南海,劍指廣東沿岸。

鑑於事態嚴重,預期影響巨大,故特此開帖。為鼓勵各位將資料存檔,版主會根據回帖內容的稀有或重要程度適當給予加分。

图片:rgb-animated.gif



图片:bd_lalo-animated.gif



图片:Mangkhut 09110600.png

[颱風巨爵于2018-09-11 17:20编辑了帖子]

图片

1条评分, 贡献值 +3
  • 327
    贡献值 3
    优秀帖
    09-13 22:00
喜欢0 评分1
双眼台风
台风
台风
  • 注册日期2013-08-21
  • 最后登录2018-09-20
  • 粉丝101
  • 关注207
  • 发帖数724
  • 来自
1楼#
发布于:2018-09-11 15:47
大小小大,真的没对比没伤害
1条评分, 威望 +2
回复(0) 喜欢(0)     评分(1)
czgzxc
台风
台风
  • 注册日期2006-08-02
  • 最后登录2018-09-20
  • 粉丝10
  • 关注1
  • 发帖数696
  • 来自
2楼#
发布于:2018-09-11 18:48
补上关岛和塞班的实测(以持续风力17mph作起止标志)
 
 Agana,
  Guam International Airport (PGUM)
 Lat: 13.48°N  Lon: 144.8°E  Elev: 299ft
 Date  Time  Wind  Pressure  Precipitation (in.)
   (chst)  (mph)  altimeter  sea level  1 hr  3 hr  6 hr
       (in)  (mb)      
 11  7:54  S 17 G 28  29.74  NA      
 11  7:40  S 18 G 28  29.74  NA      
 11  6:54  SE 16 G 25  29.69  NA      
 11  5:54  SE 15 G 23  29.68  1004.2      
 11  4:54  S 15 G 25  29.65  1003.2  0.01    
 11  3:54  S 17 G 29  29.63  1002.6      0.8
 11  3:47  S 20 G 33  29.64  NA      
 11  3:11  S 25 G 35  29.64  NA      
 11  2:54  S 23 G 32  29.64  1002.7  0.02    
 11  2:30  S 18 G 33  29.63  NA      
 11  1:54  S 28 G 44  29.6  1001.5  0.04    
 11  1:01  S 31 G 43  29.58  NA      
 11  0:54  S 25 G 46  29.57  1000.8  0.07  0.74  
 11  0:45  S 30 G 41  29.57  NA      
 11  0:07  S 31 G 49  29.58  NA      
 10  23:54  S 26 G 48  29.58  1000.9  0.21    
 10  23:07  S 35 G 63  29.56  NA      
 10  22:54  S 31 G 54  29.54  999.6  0.46    
 10  22:38  S 32 G 54  29.52  NA      
 10  22:29  S 40 G 58  29.5  NA      
 10  22:17  S 39 G 61  29.47  NA      
 10  21:54  S 41 G 66  29.43  995.8  0.88    4.92
 10  21:15  S 33 G 58  29.39  NA      
 10  21:00  S 32 G 68  29.36  NA      
 10  20:07  SW 40 G 70  29.3  NA      
 10  19:54  SW 41 G 74  29.28  NA      
 10  19:31  SW 46 G 67  29.29  NA      
 10  18:54  SW 39 G 66  29.3  NA      
 10  18:49  SW 44 G 66  29.29  NA      
 10  18:39  SW 48 G 69  29.31  NA      
 10  18:23  SW 41 G 59  29.31  NA      
 10  18:07  SW 39 G 59  29.32  NA      
 10  17:54  SW 40 G 55  29.33  992.5  0.62    
 10  17:49  SW 37 G 52  29.35  NA      
 10  17:38  SW 32 G 55  29.36  NA      
 10  17:24  W 44 G 55  29.39  NA      
 10  17:04  W 44 G 58  29.4  NA      
 10  16:54  W 40 G 54  29.41  NA      
 10  16:46  W 40 G 55  29.41  NA      
 10  16:18  W 32 G 46  29.45  NA      
 10  16:04  W 33 G 47  29.48  NA      
 10  15:54  W 33 G 45  29.49  NA      
 10  14:54  W 24 G 39  29.56  NA      
 10  14:30  W 25 G 36  29.58  NA      
 10  14:23  W 28 G 36  29.58  NA      
 10  13:54  NW 22 G 35  29.61  1001.9  0.1    
 10  13:41  NW 25 G 32  29.62  NA      
 10  13:23  NW 30 G 43  29.64  NA      
 10  13:16  W 26 G 39  29.64  NA      
 10  13:09  W 31 G 47  29.64  NA      
 10  12:54  NW 22 G 33  29.66  1003.4  0.59  0.75  
 10  12:47  NW 25 G 36  29.66  NA      
 10  12:43  W 23 G 37  29.66  NA  0.59    
 10  12:37  NW 29 G 37  29.67  NA      
 10  12:29  NW 28 G 40  29.68  NA      
 10  12:26  W 28 G 40  29.67  NA      
 10  12:16  W 24 G 37  29.66  NA      
 10  12:13  W 24 G 37  29.66  NA      
 10  12:06  W 23 G 40  29.67  NA      
 10  11:50  W 29 G 37  29.68  NA      
 10  11:43  W 24 G 32  29.68  NA      
 10  11:36  W 21 G 36  29.69  NA      
 10  11:31  W 28 G 36  29.7  NA      
 10  11:24  W 25 G 30  29.7  NA      
 10  10:54  W 20 G 29  29.74  NA      
 10  10:25  W 20  29.76  NA      
 10  9:54  NW 20 G 23  29.79  1007.9      
 10  9:25  NW 15 G 23  29.8  NA      
 10  8:54  NW 17  29.82  NA      
 ============================================
 Saipan Island,
  Saipan International Airport (PGSN)
 Lat: 15.12°N  Lon: 145.73°E  Elev: 217ft.
 Date  Time  Wind  Pressure  Precipitation (in.)
   (chst)  (mph)  altimeter  sea level  1 hr  3 hr  6 hr
       (in)  (mb)      
 11  12:54  E 17 G 26  29.77  1010.1    0.03  
 11  11:54  E 16 G 30  29.79  1011.1  0.03    
 11  10:54  SE 18  29.8  1011.1      
 11  9:54  E 15  29.79  NA      
 11  9:43  E 13  29.79  NA      
 11  8:54  E 17  29.78  1010.7      
 11  6:54  SE 14  29.75  NA      
 11  5:54  SE 14  29.72  1008.4      
 11  4:54  E 10  29.71  1008.1      
 11  3:54  SE 15 G 24  29.71  1008.1  0.04    0.04
 11  2:54  SE 17 G 29  29.7  NA      
 11  1:54  SE 21 G 32  29.73  1008.8      
 11  1:06  SE 20 G 30  29.69  NA      
 11  0:54  SE 21 G 32  29.69  1007.6      
 11  0:43  SE 22 G 36  29.7  NA      
 10  23:54  SE 24 G 37  29.7  1007.7      
 10  23:17  SE 25 G 39  29.7  NA      
 10  22:54  SE 32 G 41  29.7  1007.8      
 10  22:10  SE 30 G 44  29.67  NA      
 10  21:54  SE 28 G 44  29.65  1006.3      0.2
 10  21:07  SE 33 G 47  29.64  NA      
 10  20:54  SE 32 G 54  29.63  1005.3      
 10  20:23  SE 40 G 56  29.57  NA      
 10  20:02  SE 40 G 59  29.58  NA      
 10  19:54  SE 43 G 55  29.58  NA      
 10  19:18  E 38 G 62  29.55  NA      
 10  19:14  SE 37 G 62  29.56  NA      
 10  19:08  SE 38 G 53  29.55  NA  0.05    
 10  19:06  SE 39 G 55  29.55  NA      
 10  19:02  SE 38 G 55  29.55  NA      
 10  18:54  E 38 G 61  29.53  NA      
 10  17:54  E 43 G 56  29.46  999.7  0.01    
 10  17:41  E 41 G 61  29.44  NA      
 10  17:28  E 43 G 58  29.43  NA      
 10  17:24  E 45 G 58  29.41  NA      
 10  17:12  E 52 G 68  29.41  NA      
 10  16:54  E 48 G 64  29.4  997.5      
 10  16:46  E 48 G 66  29.39  NA      
 10  16:39  E 46 G 66  29.39  NA      
 10  16:29  E 51 G 67  29.38  NA      
 10  16:14  E 44 G 64  29.37  NA      
 10  15:54  E 53 G 76  29.34  NA      
 10  15:47  E 54 G 71  29.35  NA      
 10  15:25  E 45 G 72  29.34  NA      
 10  15:16  E 53 G 74  29.35  NA      
 10  15:14  E 53 G 70  29.35  NA      
 10  15:03  E 56 G 82  29.34  NA      
 10  14:52  NE 54 G 69  29.33  NA      
 10  14:44  NE 52 G 70  29.34  NA      
 10  14:36  NE 46 G 70  29.35  NA      
 10  14:12  NE 37 G 60  29.36  NA      
 10  13:54  NE 39 G 71  29.4  997.7  0.02    
 10  13:48  NE 44 G 58  29.4  NA      
 10  13:34  NE 41 G 61  29.42  NA      
 10  13:18  NE 37 G 49  29.45  NA      
 10  13:08  NE 37 G 53  29.47  NA      
 10  13:01  NE 38 G 52  29.47  NA      
 10  12:54  NE 33 G 48  29.48  1000.4  0.02  0.02  
 10  12:24  NE 33 G 47  29.52  NA      
 10  12:11  N 28 G 41  29.52  NA      
 10  11:54  N 29 G 39  29.54  1002.5      
 10  11:44  N 25 G 40  29.55  NA      
 10  10:54  N 23 G 32  29.62  NA      
 10  10:01  N 16 G 25  29.69  NA      
 10  9:54  N 17 G 29  29.7  1007.8  0.1    0.46
 10  8:54  N 10  29.72  NA      
 10  7:54  N 14 G 23  29.73  1008.9  0.27    
 10  7:45  N 12 G 21  29.74  NA      
 10  7:38  N 14 G 23  29.75  NA      
 10  7:18  NE 15 G 23  29.75  NA      
 10  6:54  N 17 G 23  29.75  1009.5  0.02  0.02  
[czgzxc于2018-09-11 19:06编辑了帖子]
1条评分, 威望 +5
回复(0) 喜欢(0)     评分(1)
永恒切尔西
热带低压-GW
热带低压-GW
  • 注册日期2013-02-23
  • 最后登录2018-09-13
  • 粉丝12
  • 关注3
  • 发帖数97
  • 来自
3楼#
发布于:2018-09-11 19:26

图片:vis-animated (6).gif




图片:bd-animated (2).gif


Sep 11 0330z-1030z
1条评分, 威望 +5
回复(0) 喜欢(0)     评分(1)
双眼台风
台风
台风
  • 注册日期2013-08-21
  • 最后登录2018-09-20
  • 粉丝101
  • 关注207
  • 发帖数724
  • 来自
4楼#
发布于:2018-09-11 21:21
存图来了,T=7.0
1条评分, 威望 +2
回复(0) 喜欢(0)     评分(1)
Luigi728
论坛版主-副热带高压
论坛版主-副热带高压
  • 注册日期2013-08-23
  • 最后登录2018-09-20
  • 粉丝462
  • 关注1406
  • 发帖数6898
  • 来自
5楼#
发布于:2018-09-12 08:44

图片:201809120540+112130H8__FLDK_10S_50N_75_150E--L1B.H08_TC_coast.jpg

图片:201809120810+120000H8__FLDK_10S_50N_75_150E--L1B.H08_TC_coast.jpg

图片:201809120800+112350H08.nb_10S_50N_75_150E--L1B.H08_IR1_coast.png

图片:201809120800+112350H08.nb_10S_50N_75_150E--L1B.H08_IR1_dc_coast.png

1条评分, 威望 +4
再一次相遇我會緊緊抱著你 緊緊抱著你......
回复(0) 喜欢(0)     评分(1)
炎煌深沉
台风
台风
  • 注册日期2018-05-02
  • 最后登录2018-09-20
  • 粉丝27
  • 关注18
  • 发帖数697
  • 来自
6楼#
发布于:2018-09-12 18:11

图片:wv-animated.gif

图片:avn-animated.gif


图片:rbtop-animated.gif

图片:rb-animated.gif

图片:bd-animated.gif

[炎煌深沉于2018-09-12 18:13编辑了帖子]

图片

1条评分, 威望 +10
回复(0) 喜欢(0)     评分(1)
hei
hei
论坛版主-副热带高压
论坛版主-副热带高压
  • 注册日期2011-02-15
  • 最后登录2018-09-20
  • 粉丝382
  • 关注164
  • 发帖数10350
  • 来自
7楼#
发布于:2018-09-12 22:44
貼一貼與上層差不多的東西吧

图片:26W.14.jpg

图片:26W.15.jpg

图片:26W.16.gif

图片:26W.17.gif

图片:26W.18.gif

1条评分, 威望 +8
大家無謂再欺騙自己地說出面一切正常,我想,大家是時候停一停,面對我們見到的現實。
Keep Calm and Carry On
Let’s party like it’s 1793
歡迎大家到煮酒版討論天下事
回复(0) 喜欢(0)     评分(1)
Luigi728
论坛版主-副热带高压
论坛版主-副热带高压
  • 注册日期2013-08-23
  • 最后登录2018-09-20
  • 粉丝462
  • 关注1406
  • 发帖数6898
  • 来自
8楼#
发布于:2018-09-13 01:28
山竹+百里嘉

图片:201809121600+120750H8__FLDK_10S_50N_75_150E--L1B.H08_TC_coast.jpg

图片:201809130050+121640H08.nb_10S_50N_75_150E--L1B.H08_IR1_coast.png

图片:201809130050+121640H08.nb_10S_50N_75_150E--L1B.H08_IR1_dc_coast.png

1条评分, 威望 +3
  • 327
    威望 3
    优秀帖
    09-13 22:00
再一次相遇我會緊緊抱著你 緊緊抱著你......
回复(0) 喜欢(0)     评分(1)
颱風巨爵
论坛版主-副热带高压
论坛版主-副热带高压
  • 注册日期2013-08-03
  • 最后登录2018-09-20
  • 粉丝61
  • 关注1
  • 发帖数430
  • 来自
9楼#
发布于:2018-09-13 03:18
Achievement unlocked: 頂級超颱
26W MANGKHUT 180912 1800 14.3N 132.5E WPAC 155 898

WP, 26, 2018091218,   , BEST,   0, 143N, 1325E, 155,  898, ST,  34, NEQ,  195,  120,  125,  135, 1002,  220,  17,   0,  25,   W,   0,    ,   0,   0,   MANGKHUT, D,
WP, 26, 2018091218,   , BEST,   0, 143N, 1325E, 155,  898, ST,  50, NEQ,   95,   55,   55,  105, 1002,  220,  17,   0,  25,   W,   0,    ,   0,   0,   MANGKHUT, D,
WP, 26, 2018091218,   , BEST,   0, 143N, 1325E, 155,  898, ST,  64, NEQ,   45,   40,   40,   45, 1002,  220,  17,   0,  25,   W,   0,    ,   0,   0,   MANGKHUT, D,

图片:bd_lalo-animated.gif

图片:avn_lalo-animated.gif

图片:wv_lalo-animated.gif

图片:vis_lalo-animated.gif



图片:swir_lalo-animated.gif

图片:rbtop_lalo-animated.gif

[颱風巨爵于2018-09-13 03:22编辑了帖子]
1条评分, 威望 +10
  • 327
    威望 10
    优秀帖
    09-13 22:00
回复(0) 喜欢(0)     评分(1)
Luigi728
论坛版主-副热带高压
论坛版主-副热带高压
  • 注册日期2013-08-23
  • 最后登录2018-09-20
  • 粉丝462
  • 关注1406
  • 发帖数6898
  • 来自
10楼#
发布于:2018-09-13 06:58

图片:201809130620+122210H8__FLDK_x4M--L1B.H08_TC_coast.jpg

图片:201809130620+122210H8__FLDK_10S_50N_75_150E--L1B.H08_TC_coast.jpg

图片:201809130620+122210H08.nb_10S_50N_75_150E--L1B.H08_IR1_coast.png

图片:201809130620+122210H08.nb_10S_50N_75_150E--L1B.H08_IR1_dc_coast.png

1条评分, 威望 +4
  • 327
    威望 4
    优秀帖
    09-13 22:00
再一次相遇我會緊緊抱著你 緊緊抱著你......
回复(0) 喜欢(1)     评分(1)
炎煌深沉
台风
台风
  • 注册日期2018-05-02
  • 最后登录2018-09-20
  • 粉丝27
  • 关注18
  • 发帖数697
  • 来自
11楼#
发布于:2018-09-13 18:25

图片:wv-animated.gif

图片:rb-animated.gif

图片:bd-animated.gif

[炎煌深沉于2018-09-13 18:27编辑了帖子]

图片

1条评分, 威望 +10
  • 327
    威望 10
    优秀帖
    09-13 22:00
回复(0) 喜欢(1)     评分(1)
永恒切尔西
热带低压-GW
热带低压-GW
  • 注册日期2013-02-23
  • 最后登录2018-09-13
  • 粉丝12
  • 关注3
  • 发帖数97
  • 来自
12楼#
发布于:2018-09-13 20:22

图片:vis-animated (7).gif




图片:bd-animated (3).gif


Sep 13th 0400Z-1100Z
1条评分, 威望 +4
  • 327
    威望 4
    优秀帖
    09-13 22:01
回复(0) 喜欢(0)     评分(1)
Luigi728
论坛版主-副热带高压
论坛版主-副热带高压
  • 注册日期2013-08-23
  • 最后登录2018-09-20
  • 粉丝462
  • 关注1406
  • 发帖数6898
  • 来自
13楼#
发布于:2018-09-13 22:37

图片:201809131630+130820H8__FLDK_x4M--L1B.H08_TC_coast.jpg

图片:201809132140+131330H08.nb_x4M--L1B.H08_IR1_coast.png

图片:201809132140+131330H08.nb_x4M--L1B.H08_IR1_dc_coast.png

1条评分, 威望 +3
再一次相遇我會緊緊抱著你 緊緊抱著你......
回复(0) 喜欢(0)     评分(1)
Luigi728
论坛版主-副热带高压
论坛版主-副热带高压
  • 注册日期2013-08-23
  • 最后登录2018-09-20
  • 粉丝462
  • 关注1406
  • 发帖数6898
  • 来自
14楼#
发布于:2018-09-14 08:06

图片:201809140640+132230H8__FLDK_x4M--L1B.H08_TC_coast.jpg

图片:201809140640+132230H08.nb_x4M--L1B.H08_IR1_coast.png

图片:201809140640+132230H08.nb_x4M--L1B.H08_IR1_dc_coast.png

1条评分, 威望 +3
再一次相遇我會緊緊抱著你 緊緊抱著你......
回复(0) 喜欢(0)     评分(1)
hei
hei
论坛版主-副热带高压
论坛版主-副热带高压
  • 注册日期2011-02-15
  • 最后登录2018-09-20
  • 粉丝382
  • 关注164
  • 发帖数10350
  • 来自
15楼#
发布于:2018-09-14 13:17
大眼美照

图片:26W.75.jpg



图片:26W.76.gif

图片:26W.77.gif

图片:26W.83.gif

图片:26W.78.gif

图片:26W.84.gif

1条评分, 威望 +5
大家無謂再欺騙自己地說出面一切正常,我想,大家是時候停一停,面對我們見到的現實。
Keep Calm and Carry On
Let’s party like it’s 1793
歡迎大家到煮酒版討論天下事
回复(0) 喜欢(0)     评分(1)
炎煌深沉
台风
台风
  • 注册日期2018-05-02
  • 最后登录2018-09-20
  • 粉丝27
  • 关注18
  • 发帖数697
  • 来自
16楼#
发布于:2018-09-14 19:24

图片:wv-animated.gif

图片:avn-animated.gif

图片:ft-animated.gif

图片:rb-animated.gif

图片:jsl-animated.gif

图片:rbtop-animated.gif

图片:bd-animated.gif

[炎煌深沉于2018-09-14 19:32编辑了帖子]

图片

1条评分, 威望 +10
回复(0) 喜欢(0)     评分(1)
9914dan
论坛版主-副热带高压
论坛版主-副热带高压
  • 注册日期2009-06-25
  • 最后登录2018-09-20
  • 粉丝139
  • 关注60
  • 发帖数2482
  • 来自
17楼#
发布于:2018-09-15 03:30

图片:vis-animated.gif



图片:avn-animated.gif



图片:jsl-animated.gif



图片:rb-animated.gif



图片:CT4Dvx.jpg.gif



登菲雷达动图(转发自storm2k)
[9914dan于2018-09-15 19:29编辑了帖子]

图片

1条评分, 威望 +15
回复(0) 喜欢(0)     评分(1)
炎煌深沉
台风
台风
  • 注册日期2018-05-02
  • 最后登录2018-09-20
  • 粉丝27
  • 关注18
  • 发帖数697
  • 来自
18楼#
发布于:2018-09-15 07:52

图片:wv-animated.gif

图片:rb-animated.gif

图片:avn-animated.gif

图片:rbtop-animated.gif

图片:jsl-animated.gif

图片:ft-animated.gif

图片:bd-animated.gif

[炎煌深沉于2018-09-15 07:54编辑了帖子]

图片

1条评分, 威望 +10
回复(0) 喜欢(0)     评分(1)
newshidai2004
强热带风暴
强热带风暴
  • 注册日期2016-03-16
  • 最后登录2018-09-20
  • 粉丝34
  • 关注24
  • 发帖数812
  • 来自
19楼#
发布于:2018-09-15 20:03

图片:201809142310+141500H08.nb_10S_50N_75_150E--L1B.H08_IR1_coast.png

图片:s1p-2018-09-14-23-00.jpg

图片:s1q-2018-09-14-23-00.jpg

图片:realearthb091320z.png

图片:realearth1320Z.png

图片:coms_mi_le1b_ir1_a_201809141500.thn.png

图片:anigif09150900.gif

图片:T_ZIIS00_C_DEMS_20180914170000_Cambodia_ir_website.png

图片:T_ZIIS00_C_DEMS_20180914130000_Cambodia_ir_website.png

1条评分, 威望 +15
回复(0) 喜欢(0)     评分(1)
newshidai2004
强热带风暴
强热带风暴
  • 注册日期2016-03-16
  • 最后登录2018-09-20
  • 粉丝34
  • 关注24
  • 发帖数812
  • 来自
20楼#
发布于:2018-09-15 20:09

图片:IEC201809142202.jpg

图片:IR.2018_0914_1200.jpg

图片:IR.2018_0914_1900.jpg

图片:IEC201809142210.jpg

图片:IEC201809150210.jpg

图片:TEC201809150000.jpg

图片:WEC201809142330.jpg

1条评分, 威望 +10
回复(0) 喜欢(0)     评分(1)
桑美和伊欧凯
资深会员-热带辐合带
资深会员-热带辐合带
  • 注册日期2006-11-10
  • 最后登录2018-09-19
  • 粉丝268
  • 关注280
  • 发帖数16410
  • 来自
21楼#
发布于:2018-09-16 16:21
即将登陆台山的山竹

图片:s1p.jpg



图片:vis0-lalo.gif



图片:bd0.png

1条评分, 威望 +5
最新台风动向

欢迎加入{气象乐园}群55541191
回复(0) 喜欢(0)     评分(1)
游客

返回顶部